createdAt,value
2022-09-25T00:02:06.888Z,100.00
2022-09-25T00:04:34.633Z,100.00
2022-09-25T00:07:03.797Z,100.00
2022-09-25T00:09:31.454Z,100.00
2022-09-25T00:11:59.164Z,100.00
2022-09-25T00:14:26.889Z,100.00
2022-09-25T00:16:54.574Z,100.00
2022-09-25T00:19:41.204Z,100.00
2022-09-25T00:22:10.266Z,100.00
2022-09-25T00:24:37.949Z,100.00
2022-09-25T00:27:08.452Z,100.00
2022-09-25T00:29:38.621Z,100.00
2022-09-25T00:32:07.765Z,100.00
2022-09-25T00:34:35.437Z,100.00
2022-09-25T00:37:03.111Z,100.00
2022-09-25T00:39:32.354Z,100.00
2022-09-25T00:42:00.199Z,100.00
2022-09-25T00:45:00.993Z,100.00
2022-09-25T00:47:53.315Z,100.00
2022-09-25T00:50:30.052Z,100.00
2022-09-25T00:53:03.996Z,100.00
2022-09-25T00:55:35.012Z,100.00
2022-09-25T00:58:04.156Z,100.00
2022-09-25T01:00:33.846Z,100.00
2022-09-25T01:03:04.424Z,100.00
2022-09-25T01:05:36.022Z,100.00
2022-09-25T01:08:06.932Z,100.00
2022-09-25T01:10:37.361Z,100.00
2022-09-25T01:13:06.202Z,100.00
2022-09-25T01:15:41.046Z,100.00
2022-09-25T01:18:19.048Z,100.00
2022-09-25T01:21:34.146Z,100.00
2022-09-25T01:24:39.714Z,100.00
2022-09-25T01:27:52.451Z,100.00
2022-09-25T01:30:22.289Z,100.00
2022-09-25T01:32:57.403Z,100.00
2022-09-25T01:35:35.501Z,100.00
2022-09-25T01:38:15.162Z,100.00
2022-09-25T01:40:49.406Z,100.00
2022-09-25T01:43:20.163Z,100.00
2022-09-25T01:45:52.951Z,100.00
2022-09-25T01:48:26.866Z,100.00
2022-09-25T01:50:58.980Z,100.00
2022-09-25T01:53:32.444Z,100.00
2022-09-25T01:56:04.164Z,100.00
2022-09-25T01:58:38.067Z,100.00
2022-09-25T02:01:11.384Z,100.00
2022-09-25T02:03:44.061Z,100.00
2022-09-25T02:06:16.901Z,100.00
2022-09-25T02:08:49.520Z,100.00
2022-09-25T02:11:17.291Z,100.00
2022-09-25T02:13:49.088Z,100.00
2022-09-25T02:16:23.039Z,100.00
2022-09-25T02:19:08.850Z,100.00
2022-09-25T02:21:44.093Z,100.00
2022-09-25T02:24:20.054Z,100.00
2022-09-25T02:26:48.688Z,100.00
2022-09-25T02:29:16.562Z,100.00
2022-09-25T02:31:49.325Z,100.00
2022-09-25T02:34:17.413Z,100.00
2022-09-25T02:36:45.535Z,100.00
2022-09-25T02:39:16.565Z,100.00
2022-09-25T02:42:04.777Z,100.00
2022-09-25T02:44:42.218Z,100.00
2022-09-25T02:47:22.382Z,100.00
2022-09-25T02:49:55.427Z,100.00
2022-09-25T02:52:31.091Z,100.00
2022-09-25T02:55:05.664Z,100.00
2022-09-25T02:57:40.024Z,100.00
2022-09-25T03:00:10.433Z,100.00
2022-09-25T03:02:40.673Z,100.00
2022-09-25T03:05:12.868Z,100.00
2022-09-25T03:07:55.118Z,100.00
2022-09-25T03:10:24.072Z,100.00
2022-09-25T03:12:51.729Z,100.00
2022-09-25T03:15:20.676Z,100.00
2022-09-25T03:17:52.172Z,100.00
2022-09-25T03:20:20.099Z,100.00
2022-09-25T03:22:48.020Z,100.00
2022-09-25T03:25:16.563Z,100.00
2022-09-25T03:27:44.268Z,100.00
2022-09-25T03:30:12.522Z,100.00
2022-09-25T03:32:42.122Z,100.00
2022-09-25T03:35:11.381Z,100.00
2022-09-25T03:37:39.158Z,100.00
2022-09-25T03:40:08.298Z,100.00
2022-09-25T03:42:36.117Z,100.00
2022-09-25T03:45:03.920Z,100.00
2022-09-25T03:47:31.600Z,100.00
2022-09-25T03:49:59.283Z,100.00
2022-09-25T03:52:28.334Z,100.00
2022-09-25T03:54:55.996Z,100.00
2022-09-25T03:57:23.905Z,100.00
2022-09-25T03:59:51.570Z,100.00
2022-09-25T04:02:19.514Z,100.00
2022-09-25T04:04:47.188Z,100.00
2022-09-25T04:07:14.871Z,100.00
2022-09-25T04:09:43.884Z,100.00
2022-09-25T04:12:11.548Z,100.00
2022-09-25T04:14:39.938Z,100.00
2022-09-25T04:17:07.758Z,100.00
2022-09-25T04:19:35.458Z,100.00
2022-09-25T04:22:03.133Z,100.00
2022-09-25T04:24:48.181Z,100.00
2022-09-25T04:27:19.161Z,100.00
2022-09-25T04:29:47.154Z,100.00
2022-09-25T04:32:34.136Z,100.00
2022-09-25T04:35:02.081Z,100.00
2022-09-25T04:37:30.124Z,100.00
2022-09-25T04:39:58.518Z,100.00
2022-09-25T04:42:27.639Z,100.00
2022-09-25T04:44:56.958Z,100.00
2022-09-25T04:47:28.215Z,100.00
2022-09-25T04:49:55.902Z,100.00
2022-09-25T04:52:24.019Z,100.00
2022-09-25T04:54:51.725Z,100.00
2022-09-25T04:57:45.726Z,100.00
2022-09-25T05:00:12.282Z,100.00
2022-09-25T05:02:40.058Z,100.00
2022-09-25T05:05:09.033Z,100.00
2022-09-25T05:07:36.743Z,100.00
2022-09-25T05:10:04.505Z,100.00
2022-09-25T05:12:32.073Z,100.00
2022-09-25T05:14:59.596Z,100.00
2022-09-25T05:17:28.491Z,100.00
2022-09-25T05:19:56.027Z,100.00
2022-09-25T05:22:23.573Z,100.00
2022-09-25T05:24:58.075Z,100.00
2022-09-25T05:27:26.458Z,100.00
2022-09-25T05:29:54.035Z,100.00
2022-09-25T05:32:22.829Z,100.00
2022-09-25T05:34:51.768Z,100.00
2022-09-25T05:37:20.017Z,100.00
2022-09-25T05:39:47.545Z,100.00
2022-09-25T05:42:19.173Z,100.00
2022-09-25T05:44:47.284Z,100.00
2022-09-25T05:47:14.828Z,100.00
2022-09-25T05:49:42.386Z,100.00
2022-09-25T05:52:11.283Z,100.00
2022-09-25T05:54:38.806Z,100.00
2022-09-25T05:57:06.509Z,100.00
2022-09-25T05:59:34.878Z,100.00
2022-09-25T06:02:02.474Z,100.00
2022-09-25T06:04:30.329Z,100.00
2022-09-25T06:07:02.474Z,100.00
2022-09-25T06:09:31.361Z,100.00
2022-09-25T06:11:59.068Z,100.00
2022-09-25T06:14:26.602Z,100.00
2022-09-25T06:16:54.608Z,100.00
2022-09-25T06:19:22.161Z,100.00
2022-09-25T06:21:50.021Z,100.00
2022-09-25T06:24:17.613Z,100.00
2022-09-25T06:26:47.124Z,100.00
2022-09-25T06:29:14.618Z,100.00
2022-09-25T06:31:42.206Z,100.00
2022-09-25T06:34:10.353Z,100.00
2022-09-25T06:36:38.025Z,100.00
2022-09-25T06:39:06.173Z,100.00
2022-09-25T06:41:33.681Z,100.00
2022-09-25T06:44:04.567Z,100.00
2022-09-25T06:46:32.230Z,100.00
2022-09-25T06:48:59.805Z,100.00
2022-09-25T06:51:32.224Z,100.00
2022-09-25T06:53:59.948Z,100.00
2022-09-25T06:56:27.492Z,100.00
2022-09-25T06:58:55.040Z,100.00
2022-09-25T07:01:23.976Z,100.00
2022-09-25T07:03:50.581Z,100.00
2022-09-25T07:06:20.641Z,100.00
2022-09-25T07:08:49.359Z,100.00
2022-09-25T07:11:18.600Z,100.00
2022-09-25T07:13:46.361Z,98.90
2022-09-25T07:16:15.553Z,98.71
2022-09-25T07:18:44.885Z,98.25
2022-09-25T07:21:14.242Z,98.17
2022-09-25T07:23:42.508Z,98.26
2022-09-25T07:26:12.736Z,98.59
2022-09-25T07:28:42.484Z,98.41
2022-09-25T07:31:15.684Z,99.02
2022-09-25T07:33:44.850Z,98.80
2022-09-25T07:36:12.984Z,98.90
2022-09-25T07:38:41.113Z,98.75
2022-09-25T07:41:11.263Z,98.25
2022-09-25T07:43:39.348Z,98.21
2022-09-25T07:46:07.734Z,97.85
2022-09-25T07:48:35.297Z,97.52
2022-09-25T07:51:06.906Z,97.34
2022-09-25T07:53:34.643Z,96.51
2022-09-25T07:56:06.624Z,97.67
2022-09-25T07:58:35.581Z,96.83
2022-09-25T08:01:06.152Z,97.28
2022-09-25T08:03:34.208Z,97.31
2022-09-25T08:06:02.937Z,96.75
2022-09-25T08:08:32.493Z,95.17
2022-09-25T08:11:02.545Z,95.50
2022-09-25T08:13:30.532Z,94.77
2022-09-25T08:15:58.121Z,93.78
2022-09-25T08:18:25.763Z,94.01
2022-09-25T08:20:53.369Z,94.01
2022-09-25T08:23:20.991Z,93.91
2022-09-25T08:25:50.219Z,93.47
2022-09-25T08:28:17.895Z,93.27
2022-09-25T08:30:45.608Z,92.98
2022-09-25T08:33:15.705Z,91.71
2022-09-25T08:35:43.977Z,92.59
2022-09-25T08:38:12.077Z,92.27
2022-09-25T08:40:47.639Z,92.37
2022-09-25T08:43:22.583Z,92.60
2022-09-25T08:46:08.948Z,93.17
2022-09-25T08:48:58.984Z,93.82
2022-09-25T08:51:28.384Z,93.36
2022-09-25T08:53:56.004Z,94.02
2022-09-25T08:56:25.599Z,92.77
2022-09-25T08:59:03.135Z,91.48
2022-09-25T09:01:40.891Z,90.76
2022-09-25T09:04:19.016Z,90.64
2022-09-25T09:07:08.046Z,89.62
2022-09-25T09:09:42.713Z,88.64
2022-09-25T09:12:14.698Z,89.15
2022-09-25T09:14:46.969Z,89.31
2022-09-25T09:17:19.041Z,89.55
2022-09-25T09:19:49.388Z,88.45
2022-09-25T09:22:25.168Z,87.07
2022-09-25T09:25:00.828Z,86.97
2022-09-25T09:27:42.531Z,86.27
2022-09-25T09:30:19.513Z,86.80
2022-09-25T09:33:01.294Z,87.23
2022-09-25T09:35:39.921Z,86.90
2022-09-25T09:38:18.050Z,87.91
2022-09-25T09:41:00.701Z,86.64
2022-09-25T09:43:39.974Z,87.30
2022-09-25T09:46:21.900Z,88.38
2022-09-25T09:49:04.293Z,88.88
2022-09-25T09:51:36.513Z,89.77
2022-09-25T09:54:08.201Z,87.90
2022-09-25T09:56:36.994Z,87.49
2022-09-25T09:59:07.852Z,86.33
2022-09-25T10:01:42.164Z,86.60
2022-09-25T10:04:13.794Z,86.26
2022-09-25T10:06:46.780Z,86.85
2022-09-25T10:09:16.687Z,85.73
2022-09-25T10:11:46.518Z,85.36
2022-09-25T10:14:21.107Z,86.19
2022-09-25T10:16:51.526Z,86.79
2022-09-25T10:19:22.573Z,87.07
2022-09-25T10:21:54.042Z,87.14
2022-09-25T10:24:49.772Z,87.63
2022-09-25T10:27:23.725Z,87.74
2022-09-25T10:30:02.841Z,88.54
2022-09-25T10:32:33.844Z,88.54
2022-09-25T10:35:02.111Z,87.81
2022-09-25T10:37:35.502Z,88.34
2022-09-25T10:40:04.487Z,88.49
2022-09-25T10:42:38.478Z,89.23
2022-09-25T10:45:38.443Z,89.16
2022-09-25T10:48:44.463Z,88.44
2022-09-25T10:51:17.600Z,88.81
2022-09-25T10:53:46.702Z,88.30
2022-09-25T10:56:18.079Z,89.67
2022-09-25T10:58:48.710Z,90.16
2022-09-25T11:01:17.174Z,90.34
2022-09-25T11:03:53.371Z,90.05
2022-09-25T11:06:24.739Z,90.04
2022-09-25T11:09:07.630Z,90.54
2022-09-25T11:11:37.561Z,90.88
2022-09-25T11:14:08.438Z,90.53
2022-09-25T11:16:51.246Z,90.99
2022-09-25T11:19:25.405Z,89.55
2022-09-25T11:22:01.144Z,88.64
2022-09-25T11:24:40.429Z,87.60
2022-09-25T11:27:14.269Z,86.93
2022-09-25T11:29:48.104Z,87.51
2022-09-25T11:32:23.509Z,87.47
2022-09-25T11:35:14.060Z,87.58
2022-09-25T11:37:51.281Z,88.43
2022-09-25T11:40:48.632Z,87.73
2022-09-25T11:43:21.888Z,87.52
2022-09-25T11:45:54.611Z,88.76
2022-09-25T11:48:27.434Z,89.14
2022-09-25T11:51:03.607Z,89.96
2022-09-25T11:53:40.099Z,90.03
2022-09-25T11:56:21.386Z,88.51
2022-09-25T11:59:04.358Z,89.11
2022-09-25T12:01:39.266Z,89.78
2022-09-25T12:04:41.647Z,89.81
2022-09-25T12:07:39.400Z,90.36
2022-09-25T12:10:26.590Z,90.57
2022-09-25T12:13:02.048Z,89.48
2022-09-25T12:15:49.266Z,89.12
2022-09-25T12:18:33.926Z,88.96
2022-09-25T12:21:06.156Z,87.71
2022-09-25T12:23:42.450Z,86.58
2022-09-25T12:26:23.840Z,84.80
2022-09-25T12:29:07.963Z,84.88
2022-09-25T12:31:49.580Z,85.42
2022-09-25T12:34:29.742Z,83.34
2022-09-25T12:37:07.150Z,83.47
2022-09-25T12:39:41.973Z,82.08
2022-09-25T12:42:17.703Z,82.56
2022-09-25T12:44:50.334Z,81.85
2022-09-25T12:47:26.216Z,81.31
2022-09-25T12:49:58.994Z,77.64
2022-09-25T12:52:31.431Z,78.00
2022-09-25T12:55:05.384Z,73.73
2022-09-25T12:57:38.977Z,74.44
2022-09-25T13:00:14.926Z,73.99
2022-09-25T13:02:49.823Z,75.48
2022-09-25T13:05:22.355Z,73.27
2022-09-25T13:07:55.648Z,75.01
2022-09-25T13:10:30.017Z,75.68
2022-09-25T13:13:01.811Z,76.03
2022-09-25T13:15:33.182Z,74.75
2022-09-25T13:18:01.089Z,72.47
2022-09-25T13:20:48.736Z,72.56
2022-09-25T13:23:20.216Z,73.55
2022-09-25T13:25:53.576Z,73.04
2022-09-25T13:28:22.747Z,71.53
2022-09-25T13:31:09.930Z,71.83
2022-09-25T13:33:50.421Z,71.30
2022-09-25T13:36:33.744Z,69.44
2022-09-25T13:39:22.753Z,66.22
2022-09-25T13:41:55.365Z,60.22
2022-09-25T13:44:50.071Z,56.74
2022-09-25T13:47:54.643Z,57.77
2022-09-25T13:50:31.682Z,60.78
2022-09-25T13:53:18.204Z,62.51
2022-09-25T13:56:23.243Z,64.16
2022-09-25T13:59:21.140Z,64.68
2022-09-25T14:01:51.581Z,65.00
2022-09-25T14:04:31.631Z,66.37
2022-09-25T14:07:11.857Z,67.64
2022-09-25T14:09:44.804Z,69.54
2022-09-25T14:12:22.686Z,67.45
2022-09-25T14:14:57.021Z,68.66
2022-09-25T14:17:29.741Z,66.78
2022-09-25T14:19:59.378Z,69.89
2022-09-25T14:22:34.425Z,72.36
2022-09-25T14:25:02.900Z,73.82
2022-09-25T14:27:30.842Z,73.92
2022-09-25T14:30:11.016Z,76.47
2022-09-25T14:32:55.542Z,78.39
2022-09-25T14:35:45.269Z,74.45
2022-09-25T14:38:40.441Z,74.92
2022-09-25T14:41:35.216Z,75.27
2022-09-25T14:44:25.690Z,76.05
2022-09-25T14:46:57.208Z,76.42
2022-09-25T14:49:28.583Z,76.86
2022-09-25T14:52:00.250Z,77.29
2022-09-25T14:54:33.242Z,76.95
2022-09-25T14:57:03.841Z,76.34
2022-09-25T14:59:37.763Z,77.17
2022-09-25T15:02:17.331Z,76.78
2022-09-25T15:04:44.973Z,78.04
2022-09-25T15:07:17.361Z,76.17
2022-09-25T15:09:48.281Z,77.14
2022-09-25T15:12:19.953Z,77.69
2022-09-25T15:15:01.618Z,78.12
2022-09-25T15:17:31.365Z,77.98
2022-09-25T15:20:01.736Z,76.85
2022-09-25T15:22:33.833Z,78.47
2022-09-25T15:25:06.166Z,79.17
2022-09-25T15:27:36.876Z,80.32
2022-09-25T15:30:05.077Z,80.66
2022-09-25T15:32:39.325Z,79.65
2022-09-25T15:35:15.778Z,80.76
2022-09-25T15:37:43.360Z,80.96
2022-09-25T15:40:22.696Z,81.74
2022-09-25T15:42:50.901Z,82.25
2022-09-25T15:45:39.534Z,82.93
2022-09-25T15:48:21.725Z,83.61
2022-09-25T15:50:49.984Z,84.03
2022-09-25T15:53:25.988Z,84.73
2022-09-25T15:56:04.643Z,86.44
2022-09-25T15:58:34.880Z,87.68
2022-09-25T16:01:21.916Z,88.51
2022-09-25T16:04:11.749Z,89.46
2022-09-25T16:06:42.707Z,92.38
2022-09-25T16:09:20.159Z,89.01
2022-09-25T16:11:48.789Z,90.08
2022-09-25T16:14:22.796Z,90.44
2022-09-25T16:16:51.868Z,90.55
2022-09-25T16:19:38.696Z,90.62
2022-09-25T16:22:20.137Z,90.70
2022-09-25T16:24:51.852Z,91.02
2022-09-25T16:27:33.818Z,90.73
2022-09-25T16:30:04.637Z,90.99
2022-09-25T16:32:32.783Z,91.40
2022-09-25T16:35:03.723Z,91.66
2022-09-25T16:37:34.136Z,92.22
2022-09-25T16:40:22.722Z,92.74
2022-09-25T16:42:51.379Z,93.02
2022-09-25T16:45:23.556Z,93.26
2022-09-25T16:47:51.694Z,93.20
2022-09-25T16:50:22.630Z,93.91
2022-09-25T16:52:50.557Z,94.11
2022-09-25T16:55:21.447Z,94.74
2022-09-25T16:57:49.032Z,95.18
2022-09-25T17:00:19.085Z,95.02
2022-09-25T17:02:48.604Z,94.82
2022-09-25T17:05:19.707Z,95.71
2022-09-25T17:07:50.695Z,96.03
2022-09-25T17:10:22.058Z,96.16
2022-09-25T17:12:53.971Z,96.36
2022-09-25T17:15:24.718Z,96.43
2022-09-25T17:17:54.979Z,96.70
2022-09-25T17:20:24.578Z,97.44
2022-09-25T17:22:54.705Z,97.27
2022-09-25T17:25:29.384Z,97.42
2022-09-25T17:27:56.902Z,96.95
2022-09-25T17:30:24.433Z,97.10
2022-09-25T17:32:52.442Z,97.74
2022-09-25T17:35:33.318Z,97.63
2022-09-25T17:38:02.288Z,97.15
2022-09-25T17:40:30.393Z,97.54
2022-09-25T17:42:58.269Z,97.12
2022-09-25T17:45:34.790Z,97.38
2022-09-25T17:48:02.844Z,97.30
2022-09-25T17:50:31.248Z,97.08
2022-09-25T17:52:59.221Z,97.56
2022-09-25T17:55:28.089Z,97.35
2022-09-25T17:57:56.772Z,96.79
2022-09-25T18:00:25.322Z,96.18
2022-09-25T18:02:53.094Z,96.53
2022-09-25T18:05:20.937Z,96.26
2022-09-25T18:07:48.670Z,96.18
2022-09-25T18:10:17.840Z,96.09
2022-09-25T18:12:46.843Z,96.40
2022-09-25T18:15:14.834Z,96.82
2022-09-25T18:17:42.451Z,96.69
2022-09-25T18:20:31.522Z,96.87
2022-09-25T18:22:59.209Z,97.03
2022-09-25T18:25:26.857Z,97.00
2022-09-25T18:27:55.739Z,97.69
2022-09-25T18:30:24.774Z,97.73
2022-09-25T18:32:52.377Z,98.18
2022-09-25T18:35:21.033Z,98.12
2022-09-25T18:37:48.859Z,98.42
2022-09-25T18:40:19.276Z,98.68
2022-09-25T18:42:48.161Z,99.28
2022-09-25T18:45:17.237Z,99.20
2022-09-25T18:47:46.633Z,99.14
2022-09-25T18:50:19.593Z,99.19
2022-09-25T18:52:48.213Z,99.15
2022-09-25T18:55:16.669Z,99.60
2022-09-25T18:57:44.218Z,99.26
2022-09-25T19:00:12.979Z,99.68
2022-09-25T19:02:42.516Z,99.81
2022-09-25T19:05:11.206Z,99.65
2022-09-25T19:07:38.872Z,100.00
2022-09-25T19:10:09.468Z,100.00
2022-09-25T19:12:37.081Z,100.00
2022-09-25T19:15:05.461Z,100.00
2022-09-25T19:17:33.378Z,100.00
2022-09-25T19:20:02.867Z,100.00
2022-09-25T19:22:31.161Z,100.00
2022-09-25T19:24:58.672Z,100.00
2022-09-25T19:27:28.924Z,100.00
2022-09-25T19:29:56.431Z,100.00
2022-09-25T19:32:25.241Z,100.00
2022-09-25T19:34:54.195Z,100.00
2022-09-25T19:37:26.262Z,100.00
2022-09-25T19:40:11.775Z,100.00
2022-09-25T19:42:39.350Z,100.00
2022-09-25T19:45:08.135Z,100.00
2022-09-25T19:47:35.657Z,100.00
2022-09-25T19:50:06.831Z,100.00
2022-09-25T19:52:35.817Z,100.00
2022-09-25T19:55:03.442Z,100.00
2022-09-25T19:57:31.013Z,100.00
2022-09-25T20:00:00.315Z,100.00
2022-09-25T20:02:27.929Z,100.00
2022-09-25T20:04:55.505Z,100.00
2022-09-25T20:07:23.070Z,100.00
2022-09-25T20:09:52.054Z,100.00
2022-09-25T20:12:19.602Z,100.00
2022-09-25T20:14:50.504Z,100.00
2022-09-25T20:17:18.012Z,100.00
2022-09-25T20:19:45.548Z,100.00
2022-09-25T20:22:13.061Z,100.00
2022-09-25T20:24:40.632Z,100.00
2022-09-25T20:27:09.524Z,100.00
2022-09-25T20:29:37.091Z,100.00
2022-09-25T20:32:04.747Z,100.00
2022-09-25T20:34:32.285Z,100.00
2022-09-25T20:36:59.804Z,100.00
2022-09-25T20:39:27.901Z,100.00
2022-09-25T20:41:56.021Z,100.00
2022-09-25T20:44:24.895Z,100.00
2022-09-25T20:46:52.399Z,100.00
2022-09-25T20:49:20.060Z,100.00
2022-09-25T20:51:47.646Z,100.00
2022-09-25T20:54:15.195Z,100.00
2022-09-25T20:56:44.755Z,100.00
2022-09-25T20:59:14.589Z,100.00
2022-09-25T21:01:43.594Z,100.00
2022-09-25T21:04:11.418Z,100.00
2022-09-25T21:06:40.948Z,100.00
2022-09-25T21:09:11.253Z,100.00
2022-09-25T21:11:40.267Z,100.00
2022-09-25T21:14:07.904Z,100.00
2022-09-25T21:16:35.541Z,100.00
2022-09-25T21:19:04.986Z,100.00
2022-09-25T21:21:34.104Z,100.00
2022-09-25T21:24:02.317Z,100.00
2022-09-25T21:26:31.784Z,100.00
2022-09-25T21:29:01.409Z,100.00
2022-09-25T21:31:31.590Z,100.00
2022-09-25T21:34:00.446Z,100.00
2022-09-25T21:36:30.205Z,100.00
2022-09-25T21:38:58.235Z,100.00
2022-09-25T21:41:27.556Z,100.00
2022-09-25T21:43:56.322Z,100.00
2022-09-25T21:46:25.003Z,100.00
2022-09-25T21:48:54.551Z,100.00
2022-09-25T21:51:24.589Z,100.00
2022-09-25T21:53:55.124Z,100.00
2022-09-25T21:56:24.362Z,100.00
2022-09-25T21:58:53.503Z,100.00
2022-09-25T22:01:23.693Z,100.00
2022-09-25T22:03:55.145Z,99.91
2022-09-25T22:06:24.934Z,100.00
2022-09-25T22:08:55.709Z,100.00
2022-09-25T22:11:23.400Z,100.00
2022-09-25T22:13:52.913Z,100.00
2022-09-25T22:16:22.827Z,100.00
2022-09-25T22:18:53.117Z,100.00
2022-09-25T22:21:24.141Z,100.00
2022-09-25T22:23:52.222Z,100.00
2022-09-25T22:26:21.853Z,100.00
2022-09-25T22:28:50.170Z,100.00
2022-09-25T22:31:20.138Z,100.00
2022-09-25T22:33:49.547Z,100.00
2022-09-25T22:36:17.077Z,100.00
2022-09-25T22:38:44.621Z,100.00
2022-09-25T22:41:13.648Z,100.00
2022-09-25T22:43:43.227Z,100.00
2022-09-25T22:46:12.738Z,100.00
2022-09-25T22:48:40.625Z,100.00
2022-09-25T22:51:11.312Z,100.00
2022-09-25T22:53:39.333Z,100.00
2022-09-25T22:56:12.219Z,100.00
2022-09-25T22:58:39.785Z,100.00
2022-09-25T23:01:12.747Z,100.00
2022-09-25T23:03:40.529Z,100.00
2022-09-25T23:06:08.598Z,100.00
2022-09-25T23:08:36.556Z,100.00
2022-09-25T23:11:07.882Z,100.00
2022-09-25T23:13:36.841Z,100.00
2022-09-25T23:16:07.071Z,100.00
2022-09-25T23:18:37.110Z,100.00
2022-09-25T23:21:05.314Z,100.00
2022-09-25T23:23:33.328Z,100.00
2022-09-25T23:26:06.713Z,100.00
2022-09-25T23:28:34.846Z,100.00
2022-09-25T23:31:07.180Z,100.00
2022-09-25T23:33:36.940Z,100.00
2022-09-25T23:36:06.483Z,100.00
2022-09-25T23:38:34.717Z,100.00
2022-09-25T23:41:02.705Z,100.00
2022-09-25T23:43:30.359Z,100.00
2022-09-25T23:45:57.972Z,100.00
2022-09-25T23:48:25.527Z,100.00
2022-09-25T23:50:54.389Z,100.00
2022-09-25T23:53:21.880Z,100.00
2022-09-25T23:55:50.936Z,100.00
2022-09-25T23:58:18.789Z,100.00
